createdAt,value
2022-12-31T00:02:04.900Z,101440.00
2022-12-31T00:08:07.013Z,101437.00
2022-12-31T00:14:09.095Z,101444.00
2022-12-31T00:20:11.732Z,101451.00
2022-12-31T00:26:15.065Z,101459.00
2022-12-31T00:32:17.301Z,101454.00
2022-12-31T00:38:19.353Z,101456.00
2022-12-31T00:44:21.520Z,101454.00
2022-12-31T00:50:23.773Z,101454.00
2022-12-31T00:56:28.515Z,101461.00
2022-12-31T01:02:31.042Z,101466.00
2022-12-31T01:08:33.551Z,101467.00
2022-12-31T01:14:35.722Z,101463.00
2022-12-31T01:20:40.240Z,101473.00
2022-12-31T01:26:42.707Z,101482.00
2022-12-31T01:32:44.992Z,101473.00
2022-12-31T01:38:47.303Z,101474.00
2022-12-31T01:44:55.492Z,101474.00
2022-12-31T01:50:57.730Z,101463.00
2022-12-31T01:56:59.857Z,101461.00
2022-12-31T02:03:03.523Z,101464.00
2022-12-31T02:09:05.819Z,101460.00
2022-12-31T02:15:08.538Z,101468.00
2022-12-31T02:21:22.743Z,101478.00
2022-12-31T02:28:00.728Z,101498.00
2022-12-31T02:34:20.087Z,101505.00
2022-12-31T02:40:23.605Z,101511.00
2022-12-31T02:46:42.434Z,101510.00
2022-12-31T02:52:56.445Z,101510.00
2022-12-31T02:59:21.693Z,101501.00
2022-12-31T03:05:28.519Z,101501.00
2022-12-31T03:11:59.777Z,101497.00
2022-12-31T03:18:19.233Z,101511.00
2022-12-31T03:24:42.040Z,101514.00
2022-12-31T03:30:47.246Z,101504.00
2022-12-31T03:36:49.280Z,101508.00
2022-12-31T03:42:51.366Z,101501.00
2022-12-31T03:48:53.534Z,101514.00
2022-12-31T03:54:55.836Z,101524.00
2022-12-31T04:00:58.230Z,101530.00
2022-12-31T04:07:00.520Z,101528.00
2022-12-31T04:13:04.942Z,101548.00
2022-12-31T04:19:08.061Z,101538.00
2022-12-31T04:25:11.731Z,101532.00
2022-12-31T04:31:13.800Z,101531.00
2022-12-31T04:37:15.982Z,101534.00
2022-12-31T04:43:18.051Z,101530.00
2022-12-31T04:49:20.558Z,101533.00
2022-12-31T04:55:23.028Z,101543.00
2022-12-31T05:01:25.698Z,101543.00
2022-12-31T05:07:28.090Z,101552.00
2022-12-31T05:13:33.299Z,101553.00
2022-12-31T05:19:35.947Z,101569.00
2022-12-31T05:25:38.212Z,101578.00
2022-12-31T05:31:40.258Z,101573.00
2022-12-31T05:37:42.292Z,101586.00
2022-12-31T05:43:44.491Z,101597.00
2022-12-31T05:49:46.528Z,101608.00
2022-12-31T05:55:49.092Z,101612.00
2022-12-31T06:01:51.217Z,101629.00
2022-12-31T06:07:54.598Z,101629.00
2022-12-31T06:13:56.678Z,101626.00
2022-12-31T06:19:59.995Z,101628.00
2022-12-31T06:26:03.963Z,101639.00
2022-12-31T06:32:06.505Z,101639.00
2022-12-31T06:38:11.616Z,101640.00
2022-12-31T06:44:15.080Z,101650.00
2022-12-31T06:50:17.286Z,101666.00
2022-12-31T06:56:33.183Z,101678.00
2022-12-31T07:03:09.828Z,101678.00
2022-12-31T07:09:24.557Z,101692.00
2022-12-31T07:15:42.196Z,101688.00
2022-12-31T07:21:45.098Z,101633.00
2022-12-31T07:28:11.331Z,101542.00
2022-12-31T07:34:51.593Z,101592.00
2022-12-31T07:41:12.015Z,101630.00
2022-12-31T07:47:25.630Z,101635.00
2022-12-31T07:53:28.016Z,101649.00
2022-12-31T07:59:53.337Z,101569.00
2022-12-31T08:06:13.156Z,101602.00
2022-12-31T08:12:16.174Z,101585.00
2022-12-31T08:18:18.643Z,101689.00
2022-12-31T08:24:30.785Z,101638.00
2022-12-31T08:30:56.417Z,101605.00
2022-12-31T08:37:13.808Z,101571.00
2022-12-31T08:43:31.519Z,101632.00
2022-12-31T08:49:35.551Z,101709.00
2022-12-31T08:55:38.059Z,101718.00
2022-12-31T09:02:03.172Z,101721.00
2022-12-31T09:08:39.069Z,101730.00
2022-12-31T09:15:19.312Z,101740.00
2022-12-31T09:21:21.615Z,101722.00
2022-12-31T09:27:40.921Z,101714.00
2022-12-31T09:34:28.842Z,101700.00
2022-12-31T09:41:01.750Z,101702.00
2022-12-31T09:47:49.245Z,101695.00
2022-12-31T09:54:20.399Z,101689.00
2022-12-31T10:00:43.444Z,101693.00
2022-12-31T10:07:02.644Z,101683.00
2022-12-31T10:13:33.296Z,101678.00
2022-12-31T10:19:41.615Z,101682.00
2022-12-31T10:25:59.114Z,101670.00
2022-12-31T10:32:18.699Z,101672.00
2022-12-31T10:38:29.568Z,101660.00
2022-12-31T10:44:37.967Z,101656.00
2022-12-31T10:50:45.642Z,101634.00
2022-12-31T10:57:11.869Z,101643.00
2022-12-31T11:03:25.195Z,101638.00
2022-12-31T11:09:49.019Z,101636.00
2022-12-31T11:16:10.446Z,101618.00
2022-12-31T11:22:40.796Z,101633.00
2022-12-31T11:29:01.709Z,101623.00
2022-12-31T11:35:27.014Z,101617.00
2022-12-31T11:41:49.041Z,101612.00
2022-12-31T11:48:32.675Z,101612.00
2022-12-31T11:54:51.880Z,101628.00
2022-12-31T12:01:20.138Z,101645.00
2022-12-31T12:07:24.308Z,101630.00
2022-12-31T12:13:28.088Z,101645.00
2022-12-31T12:19:33.272Z,101639.00
2022-12-31T12:25:44.131Z,101632.00
2022-12-31T12:32:15.909Z,101637.00
2022-12-31T12:38:23.373Z,101642.00
2022-12-31T12:44:25.597Z,101629.00
2022-12-31T12:50:38.668Z,101644.00
2022-12-31T12:56:52.302Z,101655.00
2022-12-31T13:03:16.398Z,101655.00
2022-12-31T13:09:29.950Z,101659.00
2022-12-31T13:15:39.917Z,101662.00
2022-12-31T13:21:42.848Z,101654.00
2022-12-31T13:27:48.469Z,101668.00
2022-12-31T13:33:59.626Z,101675.00
2022-12-31T13:40:21.334Z,101660.00
2022-12-31T13:46:46.504Z,101666.00
2022-12-31T13:53:12.886Z,101682.00
2022-12-31T13:59:22.629Z,101682.00
2022-12-31T14:05:40.680Z,101676.00
2022-12-31T14:12:23.447Z,101673.00
2022-12-31T14:18:55.390Z,101680.00
2022-12-31T14:24:59.715Z,101678.00
2022-12-31T14:31:45.254Z,101673.00
2022-12-31T14:37:57.218Z,101682.00
2022-12-31T14:44:27.262Z,101687.00
2022-12-31T14:50:31.423Z,101698.00
2022-12-31T14:56:45.877Z,101712.00
2022-12-31T15:02:53.629Z,101711.00
2022-12-31T15:09:08.582Z,101709.00
2022-12-31T15:15:38.521Z,101720.00
2022-12-31T15:21:52.798Z,101725.00
2022-12-31T15:27:57.164Z,101723.00
2022-12-31T15:34:07.395Z,101732.00
2022-12-31T15:40:15.772Z,101737.00
2022-12-31T15:46:22.700Z,101728.00
2022-12-31T15:53:07.929Z,101732.00
2022-12-31T15:59:14.237Z,101731.00
2022-12-31T16:05:27.483Z,101734.00
2022-12-31T16:11:30.747Z,101741.00
2022-12-31T16:17:38.825Z,101752.00
2022-12-31T16:23:50.129Z,101742.00
2022-12-31T16:30:02.190Z,101749.00
2022-12-31T16:36:05.571Z,101746.00
2022-12-31T16:42:14.501Z,101749.00
2022-12-31T16:48:19.318Z,101753.00
2022-12-31T16:54:29.273Z,101751.00
2022-12-31T17:00:32.647Z,101751.00
2022-12-31T17:06:34.727Z,101748.00
2022-12-31T17:13:17.451Z,101754.00
2022-12-31T17:19:05.651Z,101766.00
2022-12-31T17:25:27.311Z,101774.00
2022-12-31T17:31:34.151Z,101774.00
2022-12-31T17:37:36.602Z,101771.00
2022-12-31T17:43:40.039Z,101767.00
2022-12-31T17:49:45.940Z,101765.00
2022-12-31T17:55:51.292Z,101773.00
2022-12-31T18:01:53.518Z,101781.00
2022-12-31T18:07:56.063Z,101764.00
2022-12-31T18:13:58.357Z,101763.00
2022-12-31T18:20:05.209Z,101754.00
2022-12-31T18:26:13.092Z,101757.00
2022-12-31T18:32:30.026Z,101777.00
2022-12-31T18:38:32.407Z,101765.00
2022-12-31T18:44:34.351Z,101771.00
2022-12-31T18:50:36.832Z,101772.00
2022-12-31T18:56:44.803Z,101766.00
2022-12-31T19:02:49.269Z,101775.00
2022-12-31T19:08:51.877Z,101773.00
2022-12-31T19:14:54.048Z,101767.00
2022-12-31T19:20:56.242Z,101772.00
2022-12-31T19:26:58.418Z,101754.00
2022-12-31T19:33:01.073Z,101759.00
2022-12-31T19:39:04.599Z,101767.00
2022-12-31T19:45:07.668Z,101767.00
2022-12-31T19:51:17.872Z,101761.00
2022-12-31T19:57:19.863Z,101759.00
2022-12-31T20:03:22.040Z,101767.00
2022-12-31T20:09:24.251Z,101787.00
2022-12-31T20:15:26.451Z,101788.00
2022-12-31T20:21:29.169Z,101783.00
2022-12-31T20:27:31.216Z,101801.00
2022-12-31T20:33:33.994Z,101800.00
2022-12-31T20:39:36.041Z,101783.00
2022-12-31T20:45:41.184Z,101794.00
2022-12-31T20:51:48.793Z,101806.00
2022-12-31T20:57:53.933Z,101811.00
2022-12-31T21:04:05.442Z,101814.00
2022-12-31T21:10:11.760Z,101819.00
2022-12-31T21:16:13.916Z,101811.00
2022-12-31T21:22:16.081Z,101811.00
2022-12-31T21:28:18.269Z,101807.00
2022-12-31T21:34:20.289Z,101808.00
2022-12-31T21:40:22.402Z,101811.00
2022-12-31T21:46:25.991Z,101805.00
2022-12-31T21:52:28.667Z,101803.00
2022-12-31T21:58:30.928Z,101794.00
2022-12-31T22:05:01.552Z,101797.00
2022-12-31T22:10:55.358Z,101788.00
2022-12-31T22:16:57.355Z,101798.00
2022-12-31T22:22:59.444Z,101786.00
2022-12-31T22:29:01.556Z,101783.00
2022-12-31T22:35:03.778Z,101786.00
2022-12-31T22:41:17.819Z,101789.00
2022-12-31T22:47:19.931Z,101789.00
2022-12-31T22:53:21.997Z,101792.00
2022-12-31T22:59:24.728Z,101783.00
2022-12-31T23:05:26.802Z,101769.00
2022-12-31T23:11:29.488Z,101786.00
2022-12-31T23:17:50.291Z,101782.00
2022-12-31T23:23:53.925Z,101774.00
2022-12-31T23:29:56.025Z,101779.00
2022-12-31T23:36:05.672Z,101764.00
2022-12-31T23:42:08.175Z,101772.00
2022-12-31T23:48:10.301Z,101771.00
2022-12-31T23:54:13.123Z,101777.00
